createdAt,value
2023-05-18T00:00:49.008Z,102883.69
2023-05-18T00:03:36.773Z,102881.91
2023-05-18T00:06:23.721Z,102889.69
2023-05-18T00:09:10.552Z,102896.66
2023-05-18T00:11:58.418Z,102888.88
2023-05-18T00:14:45.372Z,102879.31
2023-05-18T00:17:32.221Z,102885.34
2023-05-18T00:20:19.148Z,102883.59
2023-05-18T00:23:06.014Z,102888.78
2023-05-18T00:25:52.803Z,102885.25
2023-05-18T00:28:39.646Z,102884.44
2023-05-18T00:31:26.603Z,102887.84
2023-05-18T00:34:14.931Z,102894.75
2023-05-18T00:37:02.863Z,102892.94
2023-05-18T00:39:49.693Z,102898.88
2023-05-18T00:42:36.533Z,102887.53
2023-05-18T00:45:23.427Z,102889.19
2023-05-18T00:48:10.330Z,102885.66
2023-05-18T00:50:57.237Z,102876.97
2023-05-18T00:53:44.410Z,102879.47
2023-05-18T00:56:31.662Z,102875.03
2023-05-18T00:59:18.719Z,102869.75
2023-05-18T01:02:05.981Z,102880.97
2023-05-18T01:04:52.989Z,102874.06
2023-05-18T01:07:40.618Z,102882.75
2023-05-18T01:10:27.565Z,102874.84
2023-05-18T01:13:23.298Z,102867.09
2023-05-18T01:16:16.685Z,102870.59
2023-05-18T01:19:13.207Z,102874.94
2023-05-18T01:22:10.153Z,102863.50
2023-05-18T01:25:04.618Z,102876.66
2023-05-18T01:27:54.574Z,102875.84
2023-05-18T01:30:42.684Z,102881.88
2023-05-18T01:33:30.138Z,102875.78
2023-05-18T01:36:17.077Z,102874.13
2023-05-18T01:39:04.049Z,102870.72
2023-05-18T01:42:06.799Z,102861.03
2023-05-18T01:45:03.154Z,102859.16
2023-05-18T01:47:56.402Z,102866.16
2023-05-18T01:50:48.662Z,102871.41
2023-05-18T01:53:45.234Z,102863.38
2023-05-18T01:56:32.926Z,102866.13
2023-05-18T01:59:20.078Z,102863.44
2023-05-18T02:02:07.033Z,102868.63
2023-05-18T02:04:56.076Z,102869.47
2023-05-18T02:07:42.932Z,102865.97
2023-05-18T02:10:29.998Z,102864.22
2023-05-18T02:13:16.915Z,102871.97
2023-05-18T02:16:04.121Z,102865.91
2023-05-18T02:18:51.000Z,102864.94
2023-05-18T02:21:37.904Z,102866.63
2023-05-18T02:24:24.796Z,102857.91
2023-05-18T02:27:11.745Z,102860.50
2023-05-18T02:29:58.613Z,102856.19
2023-05-18T02:32:45.477Z,102859.59
2023-05-18T02:35:32.607Z,102857.78
2023-05-18T02:38:19.608Z,102848.22
2023-05-18T02:41:07.628Z,102855.94
2023-05-18T02:43:54.451Z,102855.81
2023-05-18T02:46:41.342Z,102852.31
2023-05-18T02:49:28.224Z,102851.38
2023-05-18T02:52:15.082Z,102840.06
2023-05-18T02:55:02.154Z,102841.66
2023-05-18T02:58:09.791Z,102839.84
2023-05-18T03:01:12.029Z,102843.22
2023-05-18T03:04:04.662Z,102835.34
2023-05-18T03:06:52.131Z,102838.72
2023-05-18T03:09:40.277Z,102839.41
2023-05-18T03:12:28.009Z,102837.53
2023-05-18T03:15:15.326Z,102845.19
2023-05-18T03:18:02.495Z,102842.41
2023-05-18T03:20:49.809Z,102837.97
2023-05-18T03:23:36.946Z,102842.13
2023-05-18T03:26:23.817Z,102847.16
2023-05-18T03:29:10.778Z,102838.28
2023-05-18T03:31:58.327Z,102832.13
2023-05-18T03:34:46.303Z,102829.38
2023-05-18T03:37:33.271Z,102829.22
2023-05-18T03:40:20.514Z,102824.78
2023-05-18T03:43:09.214Z,102824.66
2023-05-18T03:45:58.244Z,102820.25
2023-05-18T03:48:45.800Z,102833.09
2023-05-18T03:51:36.065Z,102836.47
2023-05-18T03:54:23.346Z,102829.47
2023-05-18T03:57:11.560Z,102830.28
2023-05-18T03:59:58.460Z,102826.78
2023-05-18T04:02:45.693Z,102829.31
2023-05-18T04:05:36.549Z,102820.59
2023-05-18T04:08:23.448Z,102830.06
2023-05-18T04:11:11.636Z,102814.88
2023-05-18T04:13:59.911Z,102836.03
2023-05-18T04:16:47.434Z,102840.31
2023-05-18T04:19:35.471Z,102844.59
2023-05-18T04:22:22.648Z,102840.41
2023-05-18T04:25:10.241Z,102842.25
2023-05-18T04:27:57.656Z,102844.81
2023-05-18T04:30:45.187Z,102848.47
2023-05-18T04:33:32.092Z,102843.41
2023-05-18T04:36:20.851Z,102838.31
2023-05-18T04:39:10.001Z,102853.19
2023-05-18T04:41:56.937Z,102851.56
2023-05-18T04:44:44.961Z,102846.56
2023-05-18T04:47:32.029Z,102845.84
2023-05-18T04:50:20.962Z,102845.09
2023-05-18T04:53:07.900Z,102843.53
2023-05-18T04:55:55.266Z,102846.19
2023-05-18T04:58:42.174Z,102845.53
2023-05-18T05:01:29.024Z,102857.75
2023-05-18T05:04:15.899Z,102858.69
2023-05-18T05:07:02.756Z,102861.47
2023-05-18T05:09:50.414Z,102875.47
2023-05-18T05:12:38.340Z,102884.25
2023-05-18T05:15:25.898Z,102876.59
2023-05-18T05:18:14.135Z,102881.16
2023-05-18T05:21:01.597Z,102873.59
2023-05-18T05:23:48.483Z,102878.97
2023-05-18T05:26:35.356Z,102881.78
2023-05-18T05:29:22.277Z,102881.16
2023-05-18T05:32:09.378Z,102881.47
2023-05-18T05:34:56.927Z,102882.56
2023-05-18T05:37:46.277Z,102884.50
2023-05-18T05:40:33.204Z,102883.81
2023-05-18T05:43:20.543Z,102884.06
2023-05-18T05:46:08.050Z,102883.44
2023-05-18T05:48:54.943Z,102901.84
2023-05-18T05:51:42.052Z,102888.22
2023-05-18T05:54:29.410Z,102893.66
2023-05-18T05:57:16.263Z,102894.78
2023-05-18T06:00:03.765Z,102902.03
2023-05-18T06:03:07.640Z,102901.47
2023-05-18T06:05:57.279Z,102911.13
2023-05-18T06:08:44.187Z,102903.47
2023-05-18T06:11:31.150Z,102902.69
2023-05-18T06:14:17.991Z,102900.22
2023-05-18T06:17:05.735Z,102896.91
2023-05-18T06:19:53.166Z,102901.38
2023-05-18T06:22:40.182Z,102899.75
2023-05-18T06:25:56.681Z,102906.94
2023-05-18T06:29:02.008Z,102905.44
2023-05-18T06:31:52.710Z,102910.94
2023-05-18T06:34:43.165Z,102911.22
2023-05-18T06:37:30.704Z,102906.22
2023-05-18T06:40:17.581Z,102908.19
2023-05-18T06:43:04.569Z,102904.94
2023-05-18T06:45:58.723Z,102915.56
2023-05-18T06:48:51.380Z,102912.22
2023-05-18T06:51:38.289Z,102917.63
2023-05-18T06:54:26.100Z,102915.22
2023-05-18T06:57:13.795Z,102907.56
2023-05-18T07:00:00.871Z,102922.47
2023-05-18T07:02:49.678Z,102930.47
2023-05-18T07:05:39.179Z,102933.22
2023-05-18T07:08:26.504Z,102933.34
2023-05-18T07:11:13.410Z,102935.16
2023-05-18T07:14:00.232Z,102932.69
2023-05-18T07:16:47.053Z,102928.53
2023-05-18T07:19:34.314Z,102931.41
2023-05-18T07:22:21.152Z,102921.16
2023-05-18T07:25:08.458Z,102926.66
2023-05-18T07:27:55.335Z,102919.91
2023-05-18T07:30:42.167Z,102923.66
2023-05-18T07:33:29.005Z,102923.88
2023-05-18T07:36:15.936Z,102929.22
2023-05-18T07:39:03.311Z,102928.41
2023-05-18T07:41:50.150Z,102930.28
2023-05-18T07:44:36.994Z,102933.03
2023-05-18T07:47:23.902Z,102939.28
2023-05-18T07:50:10.966Z,102938.56
2023-05-18T07:52:57.834Z,102930.09
2023-05-18T07:55:44.732Z,102931.97
2023-05-18T07:58:31.607Z,102924.34
2023-05-18T08:01:18.453Z,102929.78
2023-05-18T08:04:05.445Z,102927.34
2023-05-18T08:06:52.766Z,102929.22
2023-05-18T08:09:39.841Z,102920.63
2023-05-18T08:12:26.742Z,102925.16
2023-05-18T08:15:13.600Z,102920.06
2023-05-18T08:18:00.507Z,102912.44
2023-05-18T08:20:47.351Z,102915.22
2023-05-18T08:23:34.334Z,102919.75
2023-05-18T08:26:21.252Z,102922.47
2023-05-18T08:29:08.142Z,102918.22
2023-05-18T08:31:55.084Z,102922.63
2023-05-18T08:34:42.001Z,102917.41
2023-05-18T08:37:28.839Z,102918.34
2023-05-18T08:40:16.053Z,102921.00
2023-05-18T08:43:07.158Z,102921.94
2023-05-18T08:46:19.224Z,102915.06
2023-05-18T08:49:06.330Z,102918.63
2023-05-18T08:51:57.404Z,102911.72
2023-05-18T08:54:44.667Z,102919.63
2023-05-18T08:57:34.816Z,102913.56
2023-05-18T09:00:25.148Z,102915.34
2023-05-18T09:03:12.784Z,102904.94
2023-05-18T09:06:00.546Z,102897.13
2023-05-18T09:08:48.556Z,102891.84
2023-05-18T09:11:35.444Z,102896.28
2023-05-18T09:14:22.270Z,102889.31
2023-05-18T09:17:10.190Z,102884.97
2023-05-18T09:19:57.241Z,102885.00
2023-05-18T09:22:44.145Z,102891.16
2023-05-18T09:25:32.797Z,102889.44
2023-05-18T09:28:45.944Z,102894.69
2023-05-18T09:31:32.866Z,102896.44
2023-05-18T09:34:19.761Z,102897.38
2023-05-18T09:37:06.624Z,102894.75
2023-05-18T09:40:00.666Z,102900.88
2023-05-18T09:42:47.527Z,102894.75
2023-05-18T09:45:38.964Z,102898.22
2023-05-18T09:48:26.175Z,102890.31
2023-05-18T09:51:14.030Z,102882.38
2023-05-18T09:54:00.861Z,102881.50
2023-05-18T09:57:02.054Z,102874.38
2023-05-18T09:59:57.061Z,102879.59
2023-05-18T10:02:47.032Z,102864.69
2023-05-18T10:05:35.983Z,102872.47
2023-05-18T10:08:23.323Z,102879.34
2023-05-18T10:11:11.120Z,102874.00
2023-05-18T10:13:58.497Z,102872.09
2023-05-18T10:16:45.361Z,102872.00
2023-05-18T10:19:35.118Z,102867.44
2023-05-18T10:22:22.069Z,102853.22
2023-05-18T10:25:11.399Z,102868.78
2023-05-18T10:28:03.309Z,102866.78
2023-05-18T10:30:51.566Z,102861.34
2023-05-18T10:33:38.612Z,102861.19
2023-05-18T10:36:25.592Z,102861.88
2023-05-18T10:39:12.617Z,102858.25
2023-05-18T10:42:02.161Z,102863.41
2023-05-18T10:44:52.518Z,102855.41
2023-05-18T10:47:41.707Z,102853.47
2023-05-18T10:50:31.756Z,102857.72
2023-05-18T10:53:21.004Z,102863.75
2023-05-18T10:56:09.069Z,102870.63
2023-05-18T10:58:56.029Z,102864.31
2023-05-18T11:01:44.340Z,102875.72
2023-05-18T11:04:31.523Z,102867.69
2023-05-18T11:07:20.949Z,102867.56
2023-05-18T11:10:10.254Z,102867.25
2023-05-18T11:13:01.001Z,102869.06
2023-05-18T11:15:54.007Z,102865.44
2023-05-18T11:18:52.014Z,102859.66
2023-05-18T11:21:38.951Z,102861.81
2023-05-18T11:24:32.507Z,102859.47
2023-05-18T11:27:22.177Z,102862.31
2023-05-18T11:30:27.100Z,102856.09
2023-05-18T11:33:21.362Z,102860.06
2023-05-18T11:36:12.834Z,102846.53
2023-05-18T11:39:04.911Z,102855.13
2023-05-18T11:42:11.752Z,102856.44
2023-05-18T11:45:06.416Z,102860.81
2023-05-18T11:48:01.444Z,102853.41
2023-05-18T11:50:48.526Z,102855.59
2023-05-18T11:53:36.596Z,102851.63
2023-05-18T11:56:25.567Z,102851.28
2023-05-18T11:59:16.477Z,102846.56
2023-05-18T12:02:04.116Z,102841.97
2023-05-18T12:04:53.817Z,102847.44
2023-05-18T12:07:41.761Z,102849.16
2023-05-18T12:10:29.472Z,102839.63
2023-05-18T12:13:17.461Z,102835.38
2023-05-18T12:16:06.354Z,102825.06
2023-05-18T12:18:53.334Z,102828.78
2023-05-18T12:21:40.269Z,102830.88
2023-05-18T12:24:27.129Z,102815.28
2023-05-18T12:27:13.974Z,102816.47
2023-05-18T12:30:00.888Z,102823.69
2023-05-18T12:32:55.974Z,102813.25
2023-05-18T12:35:42.862Z,102816.63
2023-05-18T12:38:30.086Z,102813.16
2023-05-18T12:41:27.368Z,102807.28
2023-05-18T12:44:14.938Z,102811.56
2023-05-18T12:47:02.571Z,102808.97
2023-05-18T12:52:37.089Z,102804.34
2023-05-18T12:55:24.608Z,102796.34
2023-05-18T12:58:13.202Z,102801.47
2023-05-18T13:01:07.408Z,102793.69
2023-05-18T13:03:58.625Z,102794.50
2023-05-18T13:06:45.410Z,102790.94
2023-05-18T13:09:32.262Z,102788.25
2023-05-18T13:12:19.118Z,102781.19
2023-05-18T13:15:18.296Z,102771.66
2023-05-18T13:18:07.683Z,102780.44
2023-05-18T13:20:56.517Z,102783.91
2023-05-18T13:26:31.012Z,102767.53
2023-05-18T13:29:17.879Z,102758.19
2023-05-18T13:32:05.255Z,102758.44
2023-05-18T13:34:52.120Z,102761.66
2023-05-18T13:37:39.822Z,102759.06
2023-05-18T13:40:27.322Z,102765.16
2023-05-18T13:43:14.285Z,102754.56
2023-05-18T13:46:01.186Z,102757.53
2023-05-18T13:48:48.104Z,102752.41
2023-05-18T13:51:34.971Z,102752.78
2023-05-18T13:54:21.846Z,102757.22
2023-05-18T13:57:08.720Z,102743.50
2023-05-18T13:59:55.518Z,102749.97
2023-05-18T14:02:45.495Z,102753.53
2023-05-18T14:05:32.428Z,102753.69
2023-05-18T14:08:19.282Z,102748.34
2023-05-18T14:11:06.106Z,102753.16
2023-05-18T14:13:52.877Z,102744.66
2023-05-18T14:16:39.763Z,102749.09
2023-05-18T14:19:26.721Z,102737.06
2023-05-18T14:22:13.669Z,102739.16
2023-05-18T14:25:00.936Z,102736.22
2023-05-18T14:27:47.945Z,102737.16
2023-05-18T14:30:34.779Z,102740.44
2023-05-18T14:33:21.608Z,102735.75
2023-05-18T14:36:08.484Z,102736.47
2023-05-18T14:38:55.337Z,102739.63
2023-05-18T14:41:42.202Z,102738.97
2023-05-18T14:44:29.045Z,102737.41
2023-05-18T14:47:15.909Z,102737.63
2023-05-18T14:50:02.908Z,102735.91
2023-05-18T14:52:49.759Z,102729.56
2023-05-18T14:55:36.636Z,102726.34
2023-05-18T14:58:23.483Z,102721.28
2023-05-18T15:01:10.331Z,102718.28
2023-05-18T15:03:57.276Z,102720.16
2023-05-18T15:06:44.220Z,102723.91
2023-05-18T15:09:31.055Z,102719.84
2023-05-18T15:12:17.862Z,102719.28
2023-05-18T15:15:05.044Z,102719.56
2023-05-18T15:17:52.001Z,102720.50
2023-05-18T15:20:39.946Z,102720.50
2023-05-18T15:23:26.903Z,102717.88
2023-05-18T15:26:13.764Z,102711.69
2023-05-18T15:29:00.609Z,102711.69
2023-05-18T15:31:48.196Z,102714.50
2023-05-18T15:34:35.066Z,102716.22
2023-05-18T15:37:21.849Z,102714.16
2023-05-18T15:40:08.945Z,102711.00
2023-05-18T15:42:55.814Z,102705.19
2023-05-18T15:45:42.726Z,102717.16
2023-05-18T15:48:29.559Z,102710.16
2023-05-18T15:51:16.383Z,102712.94
2023-05-18T15:54:03.367Z,102704.88
2023-05-18T15:56:50.305Z,102711.91
2023-05-18T15:59:37.193Z,102702.22
2023-05-18T16:02:25.810Z,102703.41
2023-05-18T16:05:12.927Z,102699.19
2023-05-18T16:07:59.793Z,102699.41
2023-05-18T16:10:46.632Z,102691.78
2023-05-18T16:13:33.519Z,102699.75
2023-05-18T16:16:23.997Z,102691.25
2023-05-18T16:19:11.007Z,102695.03
2023-05-18T16:21:57.832Z,102694.13
2023-05-18T16:24:44.680Z,102693.88
2023-05-18T16:27:31.515Z,102684.00
2023-05-18T16:30:18.453Z,102684.69
2023-05-18T16:33:05.361Z,102686.00
2023-05-18T16:35:52.528Z,102678.53
2023-05-18T16:38:39.396Z,102686.44
2023-05-18T16:41:26.231Z,102689.25
2023-05-18T16:44:13.089Z,102681.50
2023-05-18T16:47:00.060Z,102681.03
2023-05-18T16:49:46.867Z,102680.38
2023-05-18T16:52:33.724Z,102684.63
2023-05-18T16:55:20.612Z,102682.66
2023-05-18T16:58:07.515Z,102677.09
2023-05-18T17:00:54.341Z,102676.31
2023-05-18T17:03:41.250Z,102683.59
2023-05-18T17:06:28.133Z,102676.81
2023-05-18T17:09:14.961Z,102667.44
2023-05-18T17:12:01.893Z,102670.25
2023-05-18T17:14:51.366Z,102669.66
2023-05-18T17:17:41.311Z,102668.19
2023-05-18T17:20:29.027Z,102668.34
2023-05-18T17:23:15.924Z,102664.16
2023-05-18T17:26:06.604Z,102667.78
2023-05-18T17:28:53.817Z,102670.72
2023-05-18T17:31:40.743Z,102671.88
2023-05-18T17:34:27.631Z,102669.50
2023-05-18T17:37:14.588Z,102660.72
2023-05-18T17:40:05.242Z,102662.50
2023-05-18T17:42:52.089Z,102666.09
2023-05-18T17:45:38.957Z,102663.38
2023-05-18T17:48:25.816Z,102666.13
2023-05-18T17:51:12.750Z,102666.41
2023-05-18T17:53:59.646Z,102666.72
2023-05-18T17:56:46.481Z,102657.41
2023-05-18T17:59:34.168Z,102658.69
2023-05-18T18:02:22.399Z,102660.84
2023-05-18T18:05:09.567Z,102667.22
2023-05-18T18:07:56.411Z,102671.00
2023-05-18T18:10:43.294Z,102665.97
2023-05-18T18:13:30.125Z,102667.13
2023-05-18T18:16:18.130Z,102674.38
2023-05-18T18:19:05.017Z,102674.59
2023-05-18T18:21:51.933Z,102667.81
2023-05-18T18:24:38.771Z,102671.47
2023-05-18T18:27:25.628Z,102674.25
2023-05-18T18:30:13.222Z,102673.53
2023-05-18T18:33:00.108Z,102671.91
2023-05-18T18:35:47.520Z,102666.78
2023-05-18T18:38:34.460Z,102676.59
2023-05-18T18:41:21.453Z,102671.50
2023-05-18T18:44:08.444Z,102680.31
2023-05-18T18:46:55.336Z,102680.47
2023-05-18T18:49:42.242Z,102687.59
2023-05-18T18:52:29.121Z,102677.19
2023-05-18T18:55:16.053Z,102687.75
2023-05-18T18:58:02.918Z,102688.72
2023-05-18T19:00:50.286Z,102687.00
2023-05-18T19:03:37.057Z,102688.84
2023-05-18T19:06:23.947Z,102696.75
2023-05-18T19:09:10.744Z,102698.53
2023-05-18T19:11:57.608Z,102704.69
2023-05-18T19:14:44.481Z,102710.88
2023-05-18T19:17:31.417Z,102715.31
2023-05-18T19:20:19.148Z,102711.03
2023-05-18T19:23:06.015Z,102711.94
2023-05-18T19:25:52.835Z,102718.09
2023-05-18T19:28:39.643Z,102719.88
2023-05-18T19:31:26.607Z,102718.09
2023-05-18T19:34:13.528Z,102721.59
2023-05-18T19:37:00.373Z,102726.88
2023-05-18T19:39:47.215Z,102733.88
2023-05-18T19:42:34.009Z,102731.25
2023-05-18T19:45:20.884Z,102735.59
2023-05-18T19:48:07.736Z,102738.19
2023-05-18T19:50:54.689Z,102735.53
2023-05-18T19:53:41.530Z,102749.44
2023-05-18T19:56:28.588Z,102745.88
2023-05-18T19:59:15.409Z,102754.56
2023-05-18T20:02:02.580Z,102758.88
2023-05-18T20:04:50.430Z,102761.44
2023-05-18T20:07:37.366Z,102759.63
2023-05-18T20:10:25.326Z,102766.56
2023-05-18T20:13:12.254Z,102771.72
2023-05-18T20:15:59.294Z,102775.16
2023-05-18T20:18:46.154Z,102783.78
2023-05-18T20:21:32.968Z,102784.53
2023-05-18T20:24:19.822Z,102792.31
2023-05-18T20:27:06.693Z,102793.97
2023-05-18T20:29:53.707Z,102794.75
2023-05-18T20:32:40.519Z,102799.94
2023-05-18T20:35:27.580Z,102801.63
2023-05-18T20:38:14.434Z,102803.31
2023-05-18T20:41:01.270Z,102808.47
2023-05-18T20:43:48.122Z,102809.28
2023-05-18T20:46:34.934Z,102811.84
2023-05-18T20:49:21.781Z,102811.72
2023-05-18T20:52:08.605Z,102820.38
2023-05-18T20:54:55.959Z,102817.72
2023-05-18T20:57:43.754Z,102826.38
2023-05-18T21:00:30.761Z,102819.31
2023-05-18T21:03:17.781Z,102815.75
2023-05-18T21:06:04.673Z,102813.06
2023-05-18T21:08:51.700Z,102816.47
2023-05-18T21:11:38.573Z,102812.03
2023-05-18T21:14:25.411Z,102820.63
2023-05-18T21:17:12.250Z,102817.97
2023-05-18T21:19:59.222Z,102810.06
2023-05-18T21:22:46.077Z,102804.78
2023-05-18T21:25:32.987Z,102814.25
2023-05-18T21:28:19.794Z,102810.66
2023-05-18T21:31:06.661Z,102799.28
2023-05-18T21:33:53.519Z,102812.34
2023-05-18T21:36:40.432Z,102809.63
2023-05-18T21:39:27.273Z,102815.63
2023-05-18T21:42:14.118Z,102816.41
2023-05-18T21:45:01.030Z,102811.16
2023-05-18T21:47:48.275Z,102815.41
2023-05-18T21:50:35.621Z,102810.97
2023-05-18T21:53:22.590Z,102814.34
2023-05-18T21:56:09.470Z,102811.66
2023-05-18T21:58:56.770Z,102821.13
2023-05-18T22:01:43.709Z,102816.66
2023-05-18T22:04:30.694Z,102815.69
2023-05-18T22:07:17.692Z,102810.38
2023-05-18T22:10:05.279Z,102814.66
2023-05-18T22:12:52.102Z,102806.78
2023-05-18T22:15:39.680Z,102819.72
2023-05-18T22:18:26.545Z,102820.44
2023-05-18T22:21:13.364Z,102820.38
2023-05-18T22:24:00.159Z,102823.78
2023-05-18T22:26:47.015Z,102820.22
2023-05-18T22:29:33.932Z,102818.38
2023-05-18T22:32:21.143Z,102820.88
2023-05-18T22:35:09.081Z,102827.75
2023-05-18T22:37:55.982Z,102823.31
2023-05-18T22:40:42.941Z,102834.53
2023-05-18T22:43:29.830Z,102837.03
2023-05-18T22:46:16.751Z,102819.63
2023-05-18T22:49:03.656Z,102817.81
2023-05-18T22:51:50.459Z,102824.69
2023-05-18T22:54:37.330Z,102824.56
2023-05-18T22:57:24.165Z,102818.47
2023-05-18T23:00:15.054Z,102798.34
2023-05-18T23:03:01.959Z,102814.97
2023-05-18T23:05:48.884Z,102821.00
2023-05-18T23:08:36.466Z,102825.22
2023-05-18T23:11:23.315Z,102824.22
2023-05-18T23:14:10.718Z,102822.38
2023-05-18T23:16:57.746Z,102817.91
2023-05-18T23:19:44.730Z,102817.81
2023-05-18T23:22:31.591Z,102816.81
2023-05-18T23:25:18.551Z,102821.94
2023-05-18T23:28:05.351Z,102828.81
2023-05-18T23:30:52.150Z,102820.94
2023-05-18T23:33:39.263Z,102820.84
2023-05-18T23:36:26.873Z,102818.16
2023-05-18T23:39:14.012Z,102816.38
2023-05-18T23:42:01.076Z,102820.69
2023-05-18T23:44:48.664Z,102820.59
2023-05-18T23:47:35.896Z,102823.97
2023-05-18T23:50:23.278Z,102825.59
2023-05-18T23:53:12.324Z,102807.09
2023-05-18T23:55:59.834Z,102811.50
2023-05-18T23:58:47.504Z,102814.81
